sensor_id;sensor_type;location;lat;lon;timestamp;temperature;humidity
66740;DHT22;53653;52.188;8.602;2022-07-05T00:00:07;16.62;66.00
66740;DHT22;53653;52.188;8.602;2022-07-05T00:02:32;16.62;65.99
66740;DHT22;53653;52.188;8.602;2022-07-05T00:04:58;16.60;65.98
66740;DHT22;53653;52.188;8.602;2022-07-05T00:07:23;16.69;65.61
66740;DHT22;53653;52.188;8.602;2022-07-05T00:12:15;16.73;65.35
66740;DHT22;53653;52.188;8.602;2022-07-05T00:14:42;16.72;65.42
66740;DHT22;53653;52.188;8.602;2022-07-05T00:17:07;16.68;65.49
66740;DHT22;53653;52.188;8.602;2022-07-05T00:19:33;16.62;65.71
66740;DHT22;53653;52.188;8.602;2022-07-05T00:21:59;16.53;66.02
66740;DHT22;53653;52.188;8.602;2022-07-05T00:24:25;16.45;66.53
66740;DHT22;53653;52.188;8.602;2022-07-05T00:26:50;16.41;66.44
66740;DHT22;53653;52.188;8.602;2022-07-05T00:29:16;16.39;66.96
66740;DHT22;53653;52.188;8.602;2022-07-05T00:31:41;16.29;67.17
66740;DHT22;53653;52.188;8.602;2022-07-05T00:34:07;16.28;67.28
66740;DHT22;53653;52.188;8.602;2022-07-05T00:36:32;16.32;67.04
66740;DHT22;53653;52.188;8.602;2022-07-05T00:38:58;16.31;67.28
66740;DHT22;53653;52.188;8.602;2022-07-05T00:41:23;16.33;67.29
66740;DHT22;53653;52.188;8.602;2022-07-05T00:43:54;16.26;67.48
66740;DHT22;53653;52.188;8.602;2022-07-05T00:46:20;16.21;67.55
66740;DHT22;53653;52.188;8.602;2022-07-05T00:48:45;16.20;67.74
66740;DHT22;53653;52.188;8.602;2022-07-05T00:51:11;16.15;67.87
66740;DHT22;53653;52.188;8.602;2022-07-05T00:53:37;16.12;67.78
66740;DHT22;53653;52.188;8.602;2022-07-05T00:56:03;16.08;68.13
66740;DHT22;53653;52.188;8.602;2022-07-05T00:58:29;16.08;68.04
66740;DHT22;53653;52.188;8.602;2022-07-05T01:00:56;16.08;68.33
66740;DHT22;53653;52.188;8.602;2022-07-05T01:03:22;16.15;68.13
66740;DHT22;53653;52.188;8.602;2022-07-05T01:05:47;16.12;68.17
66740;DHT22;53653;52.188;8.602;2022-07-05T01:08:13;16.11;67.96
66740;DHT22;53653;52.188;8.602;2022-07-05T01:10:39;16.11;68.07
66740;DHT22;53653;52.188;8.602;2022-07-05T01:13:06;16.10;68.29
66740;DHT22;53653;52.188;8.602;2022-07-05T01:15:31;16.15;68.35
66740;DHT22;53653;52.188;8.602;2022-07-05T01:17:58;16.17;68.14
66740;DHT22;53653;52.188;8.602;2022-07-05T01:20:23;16.08;68.25
66740;DHT22;53653;52.188;8.602;2022-07-05T01:22:56;16.11;68.25
66740;DHT22;53653;52.188;8.602;2022-07-05T01:25:25;16.08;68.20
66740;DHT22;53653;52.188;8.602;2022-07-05T01:27:51;16.01;68.27
66740;DHT22;53653;52.188;8.602;2022-07-05T01:30:17;15.97;68.60
66740;DHT22;53653;52.188;8.602;2022-07-05T01:32:43;15.93;68.66
66740;DHT22;53653;52.188;8.602;2022-07-05T01:35:09;15.94;68.50
66740;DHT22;53653;52.188;8.602;2022-07-05T01:37:36;15.94;68.14
66740;DHT22;53653;52.188;8.602;2022-07-05T01:40:03;15.89;68.19
66740;DHT22;53653;52.188;8.602;2022-07-05T01:42:29;15.90;68.41
66740;DHT22;53653;52.188;8.602;2022-07-05T01:44:54;15.87;68.61
66740;DHT22;53653;52.188;8.602;2022-07-05T01:47:21;15.83;68.29
66740;DHT22;53653;52.188;8.602;2022-07-05T01:49:48;15.80;68.52
66740;DHT22;53653;52.188;8.602;2022-07-05T01:52:16;15.79;68.00
66740;DHT22;53653;52.188;8.602;2022-07-05T01:54:42;15.76;68.44
66740;DHT22;53653;52.188;8.602;2022-07-05T01:57:09;15.71;68.59
66740;DHT22;53653;52.188;8.602;2022-07-05T01:59:35;15.70;69.04
66740;DHT22;53653;52.188;8.602;2022-07-05T02:02:02;15.73;68.91
66740;DHT22;53653;52.188;8.602;2022-07-05T02:04:29;15.71;68.56
66740;DHT22;53653;52.188;8.602;2022-07-05T02:06:55;15.69;68.58
66740;DHT22;53653;52.188;8.602;2022-07-05T02:09:20;15.64;68.90
66740;DHT22;53653;52.188;8.602;2022-07-05T02:11:45;15.59;69.40
66740;DHT22;53653;52.188;8.602;2022-07-05T02:14:11;15.57;68.98
66740;DHT22;53653;52.188;8.602;2022-07-05T02:16:37;15.59;69.09
66740;DHT22;53653;52.188;8.602;2022-07-05T02:19:02;15.62;69.06
66740;DHT22;53653;52.188;8.602;2022-07-05T02:21:28;15.62;68.90
66740;DHT22;53653;52.188;8.602;2022-07-05T02:23:54;15.56;69.17
66740;DHT22;53653;52.188;8.602;2022-07-05T02:26:19;15.50;69.30
66740;DHT22;53653;52.188;8.602;2022-07-05T02:28:44;15.52;69.44
66740;DHT22;53653;52.188;8.602;2022-07-05T02:31:10;15.53;69.43
66740;DHT22;53653;52.188;8.602;2022-07-05T02:33:36;15.53;69.12
66740;DHT22;53653;52.188;8.602;2022-07-05T02:36:06;15.63;69.08
66740;DHT22;53653;52.188;8.602;2022-07-05T02:38:32;15.62;68.84
66740;DHT22;53653;52.188;8.602;2022-07-05T02:40:57;15.59;68.55
66740;DHT22;53653;52.188;8.602;2022-07-05T02:43:23;15.60;68.74
66740;DHT22;53653;52.188;8.602;2022-07-05T02:45:48;15.56;68.76
66740;DHT22;53653;52.188;8.602;2022-07-05T02:48:14;15.47;69.18
66740;DHT22;53653;52.188;8.602;2022-07-05T02:50:39;15.46;69.29
66740;DHT22;53653;52.188;8.602;2022-07-05T02:53:04;15.46;69.47
66740;DHT22;53653;52.188;8.602;2022-07-05T02:55:30;15.47;69.38
66740;DHT22;53653;52.188;8.602;2022-07-05T02:57:55;15.49;68.79
66740;DHT22;53653;52.188;8.602;2022-07-05T03:00:21;15.46;69.13
66740;DHT22;53653;52.188;8.602;2022-07-05T03:02:46;15.46;69.28
66740;DHT22;53653;52.188;8.602;2022-07-05T03:05:12;15.44;69.31
66740;DHT22;53653;52.188;8.602;2022-07-05T03:07:37;15.44;69.46
66740;DHT22;53653;52.188;8.602;2022-07-05T03:10:03;15.44;69.43
66740;DHT22;53653;52.188;8.602;2022-07-05T03:12:28;15.44;69.61
66740;DHT22;53653;52.188;8.602;2022-07-05T03:14:54;15.46;69.65
66740;DHT22;53653;52.188;8.602;2022-07-05T03:17:19;15.47;69.51
66740;DHT22;53653;52.188;8.602;2022-07-05T03:19:44;15.49;69.67
66740;DHT22;53653;52.188;8.602;2022-07-05T03:22:10;15.44;69.94
66740;DHT22;53653;52.188;8.602;2022-07-05T03:24:35;15.43;70.12
66740;DHT22;53653;52.188;8.602;2022-07-05T03:27:01;15.44;70.09
66740;DHT22;53653;52.188;8.602;2022-07-05T03:29:26;15.43;69.98
66740;DHT22;53653;52.188;8.602;2022-07-05T03:31:52;15.38;70.39
66740;DHT22;53653;52.188;8.602;2022-07-05T03:34:17;15.32;70.67
66740;DHT22;53653;52.188;8.602;2022-07-05T03:36:42;15.28;71.14
66740;DHT22;53653;52.188;8.602;2022-07-05T03:39:08;15.26;71.03
66740;DHT22;53653;52.188;8.602;2022-07-05T03:41:33;15.25;71.20
66740;DHT22;53653;52.188;8.602;2022-07-05T03:43:59;15.21;71.19
66740;DHT22;53653;52.188;8.602;2022-07-05T03:46:24;15.19;71.44
66740;DHT22;53653;52.188;8.602;2022-07-05T03:48:49;15.19;71.72
66740;DHT22;53653;52.188;8.602;2022-07-05T03:51:15;15.18;71.75
66740;DHT22;53653;52.188;8.602;2022-07-05T03:53:40;15.16;72.07
66740;DHT22;53653;52.188;8.602;2022-07-05T03:56:06;15.14;72.20
66740;DHT22;53653;52.188;8.602;2022-07-05T03:58:32;15.14;72.17
66740;DHT22;53653;52.188;8.602;2022-07-05T04:00:57;15.16;72.15
66740;DHT22;53653;52.188;8.602;2022-07-05T04:03:22;15.22;72.21
66740;DHT22;53653;52.188;8.602;2022-07-05T04:05:48;15.31;71.71
66740;DHT22;53653;52.188;8.602;2022-07-05T04:08:13;15.39;71.33
66740;DHT22;53653;52.188;8.602;2022-07-05T04:10:39;15.90;70.37
66740;DHT22;53653;52.188;8.602;2022-07-05T04:13:04;16.42;68.55
66740;DHT22;53653;52.188;8.602;2022-07-05T04:15:29;16.86;67.24
66740;DHT22;53653;52.188;8.602;2022-07-05T04:17:56;17.10;65.62
66740;DHT22;53653;52.188;8.602;2022-07-05T04:20:22;17.41;64.98
66740;DHT22;53653;52.188;8.602;2022-07-05T04:22:48;17.71;64.09
66740;DHT22;53653;52.188;8.602;2022-07-05T04:25:14;17.87;63.38
66740;DHT22;53653;52.188;8.602;2022-07-05T04:27:46;17.68;63.73
66740;DHT22;53653;52.188;8.602;2022-07-05T04:30:12;17.71;63.65
66740;DHT22;53653;52.188;8.602;2022-07-05T04:32:38;17.74;63.26
66740;DHT22;53653;52.188;8.602;2022-07-05T04:35:04;17.68;63.05
66740;DHT22;53653;52.188;8.602;2022-07-05T04:37:29;17.16;64.45
66740;DHT22;53653;52.188;8.602;2022-07-05T04:39:55;16.86;65.87
66740;DHT22;53653;52.188;8.602;2022-07-05T04:42:20;16.65;66.64
66740;DHT22;53653;52.188;8.602;2022-07-05T04:44:46;16.63;66.57
66740;DHT22;53653;52.188;8.602;2022-07-05T04:47:11;16.65;66.92
66740;DHT22;53653;52.188;8.602;2022-07-05T04:49:36;16.69;67.26
66740;DHT22;53653;52.188;8.602;2022-07-05T04:52:02;16.60;67.86
66740;DHT22;53653;52.188;8.602;2022-07-05T04:54:27;16.62;67.85
66740;DHT22;53653;52.188;8.602;2022-07-05T04:56:53;16.76;67.55
66740;DHT22;53653;52.188;8.602;2022-07-05T04:59:18;16.99;66.34
66740;DHT22;53653;52.188;8.602;2022-07-05T05:01:44;17.20;66.15
66740;DHT22;53653;52.188;8.602;2022-07-05T05:04:09;17.44;64.68
66740;DHT22;53653;52.188;8.602;2022-07-05T05:06:35;17.49;64.35
66740;DHT22;53653;52.188;8.602;2022-07-05T05:09:00;17.30;64.71
66740;DHT22;53653;52.188;8.602;2022-07-05T05:11:25;17.08;64.83
66740;DHT22;53653;52.188;8.602;2022-07-05T05:13:51;17.18;65.10
66740;DHT22;53653;52.188;8.602;2022-07-05T05:16:16;17.28;65.09
66740;DHT22;53653;52.188;8.602;2022-07-05T05:18:42;17.30;65.09
66740;DHT22;53653;52.188;8.602;2022-07-05T05:21:07;17.34;65.00
66740;DHT22;53653;52.188;8.602;2022-07-05T05:23:33;17.52;64.65
66740;DHT22;53653;52.188;8.602;2022-07-05T05:25:58;17.49;64.59
66740;DHT22;53653;52.188;8.602;2022-07-05T05:28:24;17.62;64.29
66740;DHT22;53653;52.188;8.602;2022-07-05T05:30:49;17.72;63.95
66740;DHT22;53653;52.188;8.602;2022-07-05T05:33:15;17.66;64.23
66740;DHT22;53653;52.188;8.602;2022-07-05T05:35:40;17.52;64.14
66740;DHT22;53653;52.188;8.602;2022-07-05T05:38:06;17.68;64.22
66740;DHT22;53653;52.188;8.602;2022-07-05T05:40:32;17.87;63.67
66740;DHT22;53653;52.188;8.602;2022-07-05T05:43:03;18.14;62.86
66740;DHT22;53653;52.188;8.602;2022-07-05T05:45:28;18.41;61.76
66740;DHT22;53653;52.188;8.602;2022-07-05T05:47:56;18.65;61.17
66740;DHT22;53653;52.188;8.602;2022-07-05T05:52:49;19.03;60.72
66740;DHT22;53653;52.188;8.602;2022-07-05T05:55:15;18.82;60.70
66740;DHT22;53653;52.188;8.602;2022-07-05T05:57:40;18.67;61.25
66740;DHT22;53653;52.188;8.602;2022-07-05T06:00:06;18.51;61.81
66740;DHT22;53653;52.188;8.602;2022-07-05T06:02:32;18.51;62.05
66740;DHT22;53653;52.188;8.602;2022-07-05T06:04:58;18.41;62.00
66740;DHT22;53653;52.188;8.602;2022-07-05T06:07:23;18.32;62.15
66740;DHT22;53653;52.188;8.602;2022-07-05T06:09:49;18.22;63.17
66740;DHT22;53653;52.188;8.602;2022-07-05T06:12:14;18.34;63.10
66740;DHT22;53653;52.188;8.602;2022-07-05T06:14:40;18.45;62.90
66740;DHT22;53653;52.188;8.602;2022-07-05T06:17:05;18.62;62.56
66740;DHT22;53653;52.188;8.602;2022-07-05T06:19:31;18.78;62.04
66740;DHT22;53653;52.188;8.602;2022-07-05T06:21:56;19.30;60.89
66740;DHT22;53653;52.188;8.602;2022-07-05T06:24:22;19.92;58.95
66740;DHT22;53653;52.188;8.602;2022-07-05T06:26:47;20.45;57.97
66740;DHT22;53653;52.188;8.602;2022-07-05T06:29:13;20.47;56.62
66740;DHT22;53653;52.188;8.602;2022-07-05T06:31:38;20.35;57.46
66740;DHT22;53653;52.188;8.602;2022-07-05T06:34:03;20.35;56.59
66740;DHT22;53653;52.188;8.602;2022-07-05T06:36:29;20.32;57.09
66740;DHT22;53653;52.188;8.602;2022-07-05T06:38:54;20.66;56.65
66740;DHT22;53653;52.188;8.602;2022-07-05T06:41:20;21.05;55.59
66740;DHT22;53653;52.188;8.602;2022-07-05T06:43:45;21.31;53.90
66740;DHT22;53653;52.188;8.602;2022-07-05T06:46:11;21.52;53.30
66740;DHT22;53653;52.188;8.602;2022-07-05T06:48:36;21.08;53.86
66740;DHT22;53653;52.188;8.602;2022-07-05T06:51:02;21.12;53.79
66740;DHT22;53653;52.188;8.602;2022-07-05T06:53:27;20.91;53.36
66740;DHT22;53653;52.188;8.602;2022-07-05T06:55:53;20.86;54.23
66740;DHT22;53653;52.188;8.602;2022-07-05T06:58:18;20.98;54.69
66740;DHT22;53653;52.188;8.602;2022-07-05T07:00:44;21.10;54.22
66740;DHT22;53653;52.188;8.602;2022-07-05T07:03:09;21.08;53.80
66740;DHT22;53653;52.188;8.602;2022-07-05T07:05:35;20.88;54.37
66740;DHT22;53653;52.188;8.602;2022-07-05T07:08:01;20.79;55.26
66740;DHT22;53653;52.188;8.602;2022-07-05T07:10:45;20.47;55.41
66740;DHT22;53653;52.188;8.602;2022-07-05T07:13:10;20.52;55.92
66740;DHT22;53653;52.188;8.602;2022-07-05T07:15:36;20.42;56.40
66740;DHT22;53653;52.188;8.602;2022-07-05T07:18:03;20.69;55.77
66740;DHT22;53653;52.188;8.602;2022-07-05T07:20:29;20.74;54.39
66740;DHT22;53653;52.188;8.602;2022-07-05T07:22:54;20.80;53.91
66740;DHT22;53653;52.188;8.602;2022-07-05T07:25:20;20.86;54.26
66740;DHT22;53653;52.188;8.602;2022-07-05T07:27:48;21.00;52.21
66740;DHT22;53653;52.188;8.602;2022-07-05T07:30:16;21.21;51.43
66740;DHT22;53653;52.188;8.602;2022-07-05T07:32:42;21.25;51.35
66740;DHT22;53653;52.188;8.602;2022-07-05T07:35:09;21.66;50.29
66740;DHT22;53653;52.188;8.602;2022-07-05T07:37:35;21.85;49.35
66740;DHT22;53653;52.188;8.602;2022-07-05T07:40:01;22.41;48.47
66740;DHT22;53653;52.188;8.602;2022-07-05T07:42:28;22.61;46.93
66740;DHT22;53653;52.188;8.602;2022-07-05T07:44:53;22.94;47.74
66740;DHT22;53653;52.188;8.602;2022-07-05T07:47:19;23.50;45.05
66740;DHT22;53653;52.188;8.602;2022-07-05T07:49:44;23.64;45.04
66740;DHT22;53653;52.188;8.602;2022-07-05T07:52:10;23.86;44.10
66740;DHT22;53653;52.188;8.602;2022-07-05T07:54:36;24.00;43.49
66740;DHT22;53653;52.188;8.602;2022-07-05T07:57:01;24.00;43.00
66740;DHT22;53653;52.188;8.602;2022-07-05T07:59:30;23.88;40.66
66740;DHT22;53653;52.188;8.602;2022-07-05T08:01:56;24.11;42.52
66740;DHT22;53653;52.188;8.602;2022-07-05T08:04:21;23.68;39.44
66740;DHT22;53653;52.188;8.602;2022-07-05T08:06:47;23.34;38.56
66740;DHT22;53653;52.188;8.602;2022-07-05T08:09:13;23.19;38.77
66740;DHT22;53653;52.188;8.602;2022-07-05T08:11:39;22.76;38.46
66740;DHT22;53653;52.188;8.602;2022-07-05T08:14:04;22.76;37.84
66740;DHT22;53653;52.188;8.602;2022-07-05T08:16:30;22.43;38.76
66740;DHT22;53653;52.188;8.602;2022-07-05T08:18:56;22.43;38.97
66740;DHT22;53653;52.188;8.602;2022-07-05T08:21:40;22.24;39.88
66740;DHT22;53653;52.188;8.602;2022-07-05T08:24:08;22.98;39.56
66740;DHT22;53653;52.188;8.602;2022-07-05T08:26:34;23.40;37.99
66740;DHT22;53653;52.188;8.602;2022-07-05T08:29:00;23.54;38.27
66740;DHT22;53653;52.188;8.602;2022-07-05T08:31:31;23.67;38.43
66740;DHT22;53653;52.188;8.602;2022-07-05T08:33:57;24.19;37.37
66740;DHT22;53653;52.188;8.602;2022-07-05T08:36:23;24.28;37.50
66740;DHT22;53653;52.188;8.602;2022-07-05T08:38:48;24.26;37.31
66740;DHT22;53653;52.188;8.602;2022-07-05T08:41:17;24.43;36.03
66740;DHT22;53653;52.188;8.602;2022-07-05T08:43:45;24.39;37.43
66740;DHT22;53653;52.188;8.602;2022-07-05T08:46:11;24.04;37.01
66740;DHT22;53653;52.188;8.602;2022-07-05T08:48:41;23.86;37.61
66740;DHT22;53653;52.188;8.602;2022-07-05T08:51:19;24.09;36.93
66740;DHT22;53653;52.188;8.602;2022-07-05T08:53:52;23.19;37.75
66740;DHT22;53653;52.188;8.602;2022-07-05T08:56:18;22.59;38.60
66740;DHT22;53653;52.188;8.602;2022-07-05T08:58:44;23.42;38.52
66740;DHT22;53653;52.188;8.602;2022-07-05T09:01:11;23.12;38.25
66740;DHT22;53653;52.188;8.602;2022-07-05T09:03:48;22.89;38.53
66740;DHT22;53653;52.188;8.602;2022-07-05T09:06:17;22.43;40.13
66740;DHT22;53653;52.188;8.602;2022-07-05T09:08:43;22.64;39.25
66740;DHT22;53653;52.188;8.602;2022-07-05T09:11:13;23.17;38.02
66740;DHT22;53653;52.188;8.602;2022-07-05T09:13:42;23.26;38.13
66740;DHT22;53653;52.188;8.602;2022-07-05T09:16:08;22.58;39.64
66740;DHT22;53653;52.188;8.602;2022-07-05T09:18:41;23.40;37.37
66740;DHT22;53653;52.188;8.602;2022-07-05T09:23:39;23.10;37.37
66740;DHT22;53653;52.188;8.602;2022-07-05T09:26:05;22.14;37.92
66740;DHT22;53653;52.188;8.602;2022-07-05T09:28:30;22.13;38.48
66740;DHT22;53653;52.188;8.602;2022-07-05T09:30:55;22.72;37.61
66740;DHT22;53653;52.188;8.602;2022-07-05T09:33:21;23.42;35.84
66740;DHT22;53653;52.188;8.602;2022-07-05T09:35:54;24.12;35.45
66740;DHT22;53653;52.188;8.602;2022-07-05T09:38:22;24.86;34.79
66740;DHT22;53653;52.188;8.602;2022-07-05T09:40:59;25.11;33.71
66740;DHT22;53653;52.188;8.602;2022-07-05T09:43:28;25.17;33.21
66740;DHT22;53653;52.188;8.602;2022-07-05T09:48:22;24.13;34.47
66740;DHT22;53653;52.188;8.602;2022-07-05T09:50:49;24.28;35.58
66740;DHT22;53653;52.188;8.602;2022-07-05T09:53:15;24.37;35.54
66740;DHT22;53653;52.188;8.602;2022-07-05T09:55:41;24.84;35.25
66740;DHT22;53653;52.188;8.602;2022-07-05T09:58:07;25.22;33.27
66740;DHT22;53653;52.188;8.602;2022-07-05T10:00:32;25.34;33.50
66740;DHT22;53653;52.188;8.602;2022-07-05T10:02:58;25.63;32.16
66740;DHT22;53653;52.188;8.602;2022-07-05T10:05:28;25.79;33.02
66740;DHT22;53653;52.188;8.602;2022-07-05T10:10:26;24.79;34.36
66740;DHT22;53653;52.188;8.602;2022-07-05T10:12:53;24.04;36.08
66740;DHT22;53653;52.188;8.602;2022-07-05T10:15:22;23.92;36.11
66740;DHT22;53653;52.188;8.602;2022-07-05T10:18:07;23.98;35.98
66740;DHT22;53653;52.188;8.602;2022-07-05T10:23:04;24.79;35.09
66740;DHT22;53653;52.188;8.602;2022-07-05T10:25:30;24.23;36.10
66740;DHT22;53653;52.188;8.602;2022-07-05T10:27:57;24.18;35.87
66740;DHT22;53653;52.188;8.602;2022-07-05T10:30:24;24.86;35.30
66740;DHT22;53653;52.188;8.602;2022-07-05T10:32:50;25.32;34.65
66740;DHT22;53653;52.188;8.602;2022-07-05T10:35:16;25.79;34.10
66740;DHT22;53653;52.188;8.602;2022-07-05T10:37:42;25.96;33.74
66740;DHT22;53653;52.188;8.602;2022-07-05T10:40:09;25.52;31.60
66740;DHT22;53653;52.188;8.602;2022-07-05T10:42:56;25.89;33.91
66740;DHT22;53653;52.188;8.602;2022-07-05T10:45:31;25.65;32.27
66740;DHT22;53653;52.188;8.602;2022-07-05T11:06:06;24.60;33.78
66740;DHT22;53653;52.188;8.602;2022-07-05T11:11:37;26.06;32.25
66740;DHT22;53653;52.188;8.602;2022-07-05T11:14:05;26.27;32.46
66740;DHT22;53653;52.188;8.602;2022-07-05T11:17:17;26.23;32.11
66740;DHT22;53653;52.188;8.602;2022-07-05T11:20:04;25.37;33.41
66740;DHT22;53653;52.188;8.602;2022-07-05T11:22:31;24.64;34.97
66740;DHT22;53653;52.188;8.602;2022-07-05T11:24:57;24.15;35.79
66740;DHT22;53653;52.188;8.602;2022-07-05T11:27:24;23.89;36.36
66740;DHT22;53653;52.188;8.602;2022-07-05T11:29:51;24.00;36.27
66740;DHT22;53653;52.188;8.602;2022-07-05T11:34:48;24.16;36.01
66740;DHT22;53653;52.188;8.602;2022-07-05T11:37:21;24.37;35.49
66740;DHT22;53653;52.188;8.602;2022-07-05T11:42:39;24.91;34.67
66740;DHT22;53653;52.188;8.602;2022-07-05T11:45:11;24.70;35.61
66740;DHT22;53653;52.188;8.602;2022-07-05T11:47:37;24.43;34.40
66740;DHT22;53653;52.188;8.602;2022-07-05T11:50:03;24.25;35.40
66740;DHT22;53653;52.188;8.602;2022-07-05T11:52:31;24.08;35.31
66740;DHT22;53653;52.188;8.602;2022-07-05T11:54:58;24.50;34.91
66740;DHT22;53653;52.188;8.602;2022-07-05T11:57:23;25.41;33.34
66740;DHT22;53653;52.188;8.602;2022-07-05T11:59:49;25.68;33.81
66740;DHT22;53653;52.188;8.602;2022-07-05T12:02:15;24.86;35.11
66740;DHT22;53653;52.188;8.602;2022-07-05T12:04:47;24.56;35.56
66740;DHT22;53653;52.188;8.602;2022-07-05T12:07:33;24.21;35.55
66740;DHT22;53653;52.188;8.602;2022-07-05T12:09:59;23.94;36.00
66740;DHT22;53653;52.188;8.602;2022-07-05T12:12:43;23.88;35.85
66740;DHT22;53653;52.188;8.602;2022-07-05T12:15:12;24.13;35.66
66740;DHT22;53653;52.188;8.602;2022-07-05T12:17:39;24.55;35.27
66740;DHT22;53653;52.188;8.602;2022-07-05T12:20:08;25.32;34.65
66740;DHT22;53653;52.188;8.602;2022-07-05T12:22:39;25.37;33.72
66740;DHT22;53653;52.188;8.602;2022-07-05T12:25:06;24.67;34.59
66740;DHT22;53653;52.188;8.602;2022-07-05T12:27:35;24.67;35.29
66740;DHT22;53653;52.188;8.602;2022-07-05T12:30:02;25.06;34.10
66740;DHT22;53653;52.188;8.602;2022-07-05T12:32:28;25.37;33.54
66740;DHT22;53653;52.188;8.602;2022-07-05T12:34:56;25.73;33.18
66740;DHT22;53653;52.188;8.602;2022-07-05T12:37:22;25.92;32.07
66740;DHT22;53653;52.188;8.602;2022-07-05T12:39:49;25.70;32.67
66740;DHT22;53653;52.188;8.602;2022-07-05T12:42:31;24.90;33.59
66740;DHT22;53653;52.188;8.602;2022-07-05T12:45:15;24.94;34.43
66740;DHT22;53653;52.188;8.602;2022-07-05T12:47:55;24.77;33.37
66740;DHT22;53653;52.188;8.602;2022-07-05T12:50:25;24.63;34.18
66740;DHT22;53653;52.188;8.602;2022-07-05T12:55:33;24.79;34.75
66740;DHT22;53653;52.188;8.602;2022-07-05T12:58:17;25.08;34.46
66740;DHT22;53653;52.188;8.602;2022-07-05T13:00:42;25.50;34.08
66740;DHT22;53653;52.188;8.602;2022-07-05T13:03:08;25.63;33.51
66740;DHT22;53653;52.188;8.602;2022-07-05T13:05:33;25.31;33.80
66740;DHT22;53653;52.188;8.602;2022-07-05T13:07:59;25.12;33.88
66740;DHT22;53653;52.188;8.602;2022-07-05T13:10:26;24.87;33.83
66740;DHT22;53653;52.188;8.602;2022-07-05T13:12:57;24.88;33.56
66740;DHT22;53653;52.188;8.602;2022-07-05T13:15:23;24.59;33.65
66740;DHT22;53653;52.188;8.602;2022-07-05T13:17:48;24.49;34.26
66740;DHT22;53653;52.188;8.602;2022-07-05T13:20:16;24.70;33.99
66740;DHT22;53653;52.188;8.602;2022-07-05T13:22:43;24.86;34.25
66740;DHT22;53653;52.188;8.602;2022-07-05T13:25:12;24.90;33.94
66740;DHT22;53653;52.188;8.602;2022-07-05T13:27:41;24.87;33.63
66740;DHT22;53653;52.188;8.602;2022-07-05T13:30:07;24.74;33.86
66740;DHT22;53653;52.188;8.602;2022-07-05T13:32:33;24.66;34.06
66740;DHT22;53653;52.188;8.602;2022-07-05T13:34:59;24.98;34.18
66740;DHT22;53653;52.188;8.602;2022-07-05T13:37:24;25.37;33.80
66740;DHT22;53653;52.188;8.602;2022-07-05T13:39:49;25.66;33.53
66740;DHT22;53653;52.188;8.602;2022-07-05T13:42:15;25.93;32.91
66740;DHT22;53653;52.188;8.602;2022-07-05T13:44:41;26.17;32.32
66740;DHT22;53653;52.188;8.602;2022-07-05T13:47:06;25.79;32.37
66740;DHT22;53653;52.188;8.602;2022-07-05T13:49:32;25.49;32.94
66740;DHT22;53653;52.188;8.602;2022-07-05T13:51:58;25.34;32.95
66740;DHT22;53653;52.188;8.602;2022-07-05T13:54:27;25.50;32.52
66740;DHT22;53653;52.188;8.602;2022-07-05T13:56:52;25.66;33.20
66740;DHT22;53653;52.188;8.602;2022-07-05T13:59:20;25.61;32.27
66740;DHT22;53653;52.188;8.602;2022-07-05T14:01:45;25.32;32.38
66740;DHT22;53653;52.188;8.602;2022-07-05T14:04:11;25.25;32.13
66740;DHT22;53653;52.188;8.602;2022-07-05T14:06:37;25.34;32.73
66740;DHT22;53653;52.188;8.602;2022-07-05T14:09:03;25.55;33.01
66740;DHT22;53653;52.188;8.602;2022-07-05T14:11:29;25.76;32.86
66740;DHT22;53653;52.188;8.602;2022-07-05T14:13:55;25.82;32.34
66740;DHT22;53653;52.188;8.602;2022-07-05T14:16:21;26.00;31.92
66740;DHT22;53653;52.188;8.602;2022-07-05T14:18:47;26.12;32.40
66740;DHT22;53653;52.188;8.602;2022-07-05T14:21:13;25.28;33.93
66740;DHT22;53653;52.188;8.602;2022-07-05T14:23:44;25.19;33.65
66740;DHT22;53653;52.188;8.602;2022-07-05T14:26:12;25.03;34.21
66740;DHT22;53653;52.188;8.602;2022-07-05T14:28:37;25.18;34.39
66740;DHT22;53653;52.188;8.602;2022-07-05T14:31:03;25.01;32.97
66740;DHT22;53653;52.188;8.602;2022-07-05T14:33:28;25.48;32.84
66740;DHT22;53653;52.188;8.602;2022-07-05T14:35:54;25.52;31.79
66740;DHT22;53653;52.188;8.602;2022-07-05T14:38:19;25.48;32.53
66740;DHT22;53653;52.188;8.602;2022-07-05T14:40:45;25.22;32.90
66740;DHT22;53653;52.188;8.602;2022-07-05T14:43:10;24.84;33.58
66740;DHT22;53653;52.188;8.602;2022-07-05T14:45:36;24.73;34.22
66740;DHT22;53653;52.188;8.602;2022-07-05T14:48:01;24.81;33.71
66740;DHT22;53653;52.188;8.602;2022-07-05T14:50:27;25.01;33.92
66740;DHT22;53653;52.188;8.602;2022-07-05T14:52:52;25.48;32.74
66740;DHT22;53653;52.188;8.602;2022-07-05T14:55:18;25.69;32.69
66740;DHT22;53653;52.188;8.602;2022-07-05T14:57:44;25.89;31.56
66740;DHT22;53653;52.188;8.602;2022-07-05T15:00:11;25.97;31.86
66740;DHT22;53653;52.188;8.602;2022-07-05T15:02:37;26.06;32.35
66740;DHT22;53653;52.188;8.602;2022-07-05T15:05:04;26.04;31.92
66740;DHT22;53653;52.188;8.602;2022-07-05T15:07:29;25.92;31.82
66740;DHT22;53653;52.188;8.602;2022-07-05T15:09:55;25.83;31.89
66740;DHT22;53653;52.188;8.602;2022-07-05T15:12:21;25.52;32.98
66740;DHT22;53653;52.188;8.602;2022-07-05T15:14:47;25.37;32.14
66740;DHT22;53653;52.188;8.602;2022-07-05T15:17:12;25.32;32.83
66740;DHT22;53653;52.188;8.602;2022-07-05T15:19:38;25.24;33.75
66740;DHT22;53653;52.188;8.602;2022-07-05T15:22:05;25.34;33.94
66740;DHT22;53653;52.188;8.602;2022-07-05T15:24:31;25.41;33.63
66740;DHT22;53653;52.188;8.602;2022-07-05T15:26:57;25.38;33.48
66740;DHT22;53653;52.188;8.602;2022-07-05T15:29:22;25.46;33.58
66740;DHT22;53653;52.188;8.602;2022-07-05T15:31:48;25.37;33.01
66740;DHT22;53653;52.188;8.602;2022-07-05T15:34:13;25.21;33.73
66740;DHT22;53653;52.188;8.602;2022-07-05T15:36:39;24.81;34.30
66740;DHT22;53653;52.188;8.602;2022-07-05T15:39:05;24.88;34.61
66740;DHT22;53653;52.188;8.602;2022-07-05T15:41:32;24.71;34.76
66740;DHT22;53653;52.188;8.602;2022-07-05T15:43:58;24.69;35.39
66740;DHT22;53653;52.188;8.602;2022-07-05T15:46:24;24.95;35.09
66740;DHT22;53653;52.188;8.602;2022-07-05T15:48:50;25.11;34.42
66740;DHT22;53653;52.188;8.602;2022-07-05T15:51:19;25.11;34.73
66740;DHT22;53653;52.188;8.602;2022-07-05T15:53:45;25.10;35.29
66740;DHT22;53653;52.188;8.602;2022-07-05T15:56:10;25.07;35.70
66740;DHT22;53653;52.188;8.602;2022-07-05T15:58:36;24.80;37.61
66740;DHT22;53653;52.188;8.602;2022-07-05T16:01:03;24.52;38.89
66740;DHT22;53653;52.188;8.602;2022-07-05T16:03:29;24.53;38.86
66740;DHT22;53653;52.188;8.602;2022-07-05T16:05:56;24.48;39.38
66740;DHT22;53653;52.188;8.602;2022-07-05T16:08:22;24.60;38.82
66740;DHT22;53653;52.188;8.602;2022-07-05T16:10:48;24.64;38.98